createdAt,value
2019-02-15T00:00:01.914Z,43.60
2019-02-15T00:01:01.913Z,45.90
2019-02-15T00:02:01.923Z,46.20
2019-02-15T00:03:01.888Z,44.50
2019-02-15T00:04:01.902Z,47.20
2019-02-15T00:05:01.865Z,43.40
2019-02-15T00:06:01.859Z,47.00
2019-02-15T00:07:01.836Z,44.30
2019-02-15T00:08:01.838Z,42.60
2019-02-15T00:09:01.818Z,45.50
2019-02-15T00:10:01.829Z,47.40
2019-02-15T00:11:01.805Z,43.20
2019-02-15T00:12:01.800Z,50.70
2019-02-15T00:13:01.770Z,46.70
2019-02-15T00:14:01.765Z,51.10
2019-02-15T00:15:01.793Z,48.20
2019-02-15T00:16:01.742Z,49.20
2019-02-15T00:17:01.783Z,41.30
2019-02-15T00:18:01.719Z,44.00
2019-02-15T00:19:01.710Z,46.60
2019-02-15T00:20:01.705Z,49.30
2019-02-15T00:21:01.698Z,46.70
2019-02-15T00:22:01.673Z,50.10
2019-02-15T00:23:01.662Z,46.20
2019-02-15T00:24:01.680Z,45.10
2019-02-15T00:25:01.662Z,48.90
2019-02-15T00:26:01.630Z,48.80
2019-02-15T00:27:01.625Z,41.20
2019-02-15T00:28:01.611Z,54.60
2019-02-15T00:29:01.601Z,44.40
2019-02-15T00:30:01.641Z,42.30
2019-02-15T00:31:01.593Z,44.00
2019-02-15T00:32:01.573Z,43.30
2019-02-15T00:33:01.564Z,48.10
2019-02-15T00:34:01.549Z,47.20
2019-02-15T00:35:01.547Z,45.10
2019-02-15T00:36:01.525Z,47.60
2019-02-15T00:37:01.519Z,43.40
2019-02-15T00:38:01.539Z,46.70
2019-02-15T00:39:01.523Z,41.40
2019-02-15T00:40:01.522Z,49.70
2019-02-15T00:41:01.470Z,48.00
2019-02-15T00:42:01.459Z,46.50
2019-02-15T00:43:01.454Z,43.70
2019-02-15T00:44:01.441Z,48.40
2019-02-15T00:45:01.458Z,47.60
2019-02-15T00:46:01.417Z,47.40
2019-02-15T00:47:01.427Z,48.20
2019-02-15T00:48:01.413Z,52.50
2019-02-15T00:49:01.398Z,52.10
2019-02-15T00:50:01.384Z,41.90
2019-02-15T00:51:01.408Z,49.70
2019-02-15T00:52:01.352Z,49.50
2019-02-15T00:53:01.342Z,48.00
2019-02-15T00:54:01.331Z,48.40
2019-02-15T00:55:01.333Z,49.70
2019-02-15T00:56:01.315Z,49.60
2019-02-15T00:57:01.301Z,55.30
2019-02-15T00:58:01.305Z,54.20
2019-02-15T00:59:01.278Z,52.00
2019-02-15T01:00:01.272Z,59.50
2019-02-15T01:01:01.294Z,58.50
2019-02-15T01:02:01.251Z,54.70
2019-02-15T01:03:01.251Z,52.80
2019-02-15T01:04:01.233Z,51.40
2019-02-15T01:05:01.223Z,54.70
2019-02-15T01:06:01.204Z,49.60
2019-02-15T01:07:01.214Z,50.00
2019-02-15T01:08:01.196Z,48.10
2019-02-15T01:09:01.170Z,47.20
2019-02-15T01:10:01.163Z,53.10
2019-02-15T01:11:01.161Z,52.70
2019-02-15T01:12:01.143Z,53.40
2019-02-15T01:13:01.135Z,52.90
2019-02-15T01:14:01.130Z,49.00
2019-02-15T01:15:01.145Z,45.60
2019-02-15T01:16:01.121Z,53.50
2019-02-15T01:17:01.085Z,47.80
2019-02-15T01:18:01.077Z,50.70
2019-02-15T01:19:01.067Z,53.80
2019-02-15T01:20:01.058Z,50.30
2019-02-15T01:21:01.081Z,49.60
2019-02-15T01:22:01.039Z,49.30
2019-02-15T01:23:01.021Z,49.20
2019-02-15T01:24:01.011Z,53.30
2019-02-15T01:25:01.020Z,47.00
2019-02-15T01:26:01.008Z,47.40
2019-02-15T01:27:00.983Z,48.80
2019-02-15T01:28:00.969Z,49.90
2019-02-15T01:29:00.963Z,45.50
2019-02-15T01:30:00.955Z,49.00
2019-02-15T01:31:00.946Z,47.50
2019-02-15T01:32:00.938Z,50.00
2019-02-15T01:33:00.933Z,54.00
2019-02-15T01:34:00.907Z,53.30
2019-02-15T01:35:00.903Z,54.80
2019-02-15T01:36:00.907Z,50.50
2019-02-15T01:37:00.877Z,48.10
2019-02-15T01:38:00.865Z,47.70
2019-02-15T01:39:00.882Z,47.90
2019-02-15T01:40:00.843Z,53.20
2019-02-15T01:41:00.848Z,53.90
2019-02-15T01:42:00.825Z,53.50
2019-02-15T01:43:00.811Z,46.60
2019-02-15T01:44:00.805Z,45.50
2019-02-15T01:45:00.789Z,49.20
2019-02-15T01:46:00.795Z,44.30
2019-02-15T01:47:00.772Z,44.70
2019-02-15T01:48:00.760Z,48.90
2019-02-15T01:49:00.751Z,47.20
2019-02-15T01:50:00.744Z,51.20
2019-02-15T01:51:00.731Z,49.60
2019-02-15T01:52:00.720Z,41.90
2019-02-15T01:53:00.701Z,53.00
2019-02-15T01:54:00.693Z,50.70
2019-02-15T01:55:00.681Z,43.90
2019-02-15T01:56:00.682Z,49.30
2019-02-15T01:57:00.661Z,49.70
2019-02-15T01:58:00.655Z,55.60
2019-02-15T01:59:00.643Z,43.10
2019-02-15T02:00:00.627Z,47.60
2019-02-15T02:01:00.621Z,46.30
2019-02-15T02:02:00.637Z,47.60
2019-02-15T02:03:00.622Z,47.10
2019-02-15T02:04:00.584Z,45.10
2019-02-15T02:05:00.579Z,44.10
2019-02-15T02:06:00.571Z,45.70
2019-02-15T02:07:00.564Z,46.50
2019-02-15T02:08:00.555Z,44.10
2019-02-15T02:09:00.547Z,49.40
2019-02-15T02:10:00.546Z,44.80
2019-02-15T02:11:00.513Z,53.00
2019-02-15T02:12:00.544Z,51.70
2019-02-15T02:13:00.499Z,53.10
2019-02-15T02:14:00.507Z,53.40
2019-02-15T02:15:00.474Z,52.10
2019-02-15T02:16:00.460Z,47.50
2019-02-15T02:17:00.491Z,52.30
2019-02-15T02:18:00.468Z,55.00
2019-02-15T02:19:00.427Z,51.10
2019-02-15T02:20:00.448Z,51.80
2019-02-15T02:21:00.406Z,52.10
2019-02-15T02:22:00.415Z,56.40
2019-02-15T02:23:01.827Z,53.70
2019-02-15T02:24:00.418Z,53.40
2019-02-15T02:25:00.371Z,52.40
2019-02-15T02:26:00.351Z,52.40
2019-02-15T02:27:00.339Z,55.00
2019-02-15T02:28:00.332Z,54.80
2019-02-15T02:29:00.321Z,52.00
2019-02-15T02:30:00.519Z,50.40
2019-02-15T02:31:00.334Z,52.10
2019-02-15T02:32:00.288Z,50.20
2019-02-15T02:33:00.282Z,51.40
2019-02-15T02:34:00.287Z,54.00
2019-02-15T02:35:00.403Z,52.40
2019-02-15T02:36:00.284Z,51.30
2019-02-15T02:37:00.244Z,61.50
2019-02-15T02:38:00.288Z,55.20
2019-02-15T02:39:00.213Z,61.30
2019-02-15T02:40:00.287Z,57.90
2019-02-15T02:41:00.198Z,49.50
2019-02-15T02:42:00.179Z,54.40
2019-02-15T02:43:00.181Z,55.70
2019-02-15T02:44:00.221Z,59.90
2019-02-15T02:45:15.150Z,61.30
2019-02-15T02:46:00.141Z,58.70
2019-02-15T02:47:00.131Z,51.90
2019-02-15T02:48:00.138Z,58.30
2019-02-15T02:49:00.110Z,55.50
2019-02-15T02:50:00.267Z,59.20
2019-02-15T02:51:00.147Z,57.70
2019-02-15T02:52:00.109Z,56.10
2019-02-15T02:53:00.081Z,48.80
2019-02-15T02:54:00.068Z,54.80
2019-02-15T02:55:00.110Z,55.80
2019-02-15T02:56:00.038Z,51.90
2019-02-15T02:57:00.025Z,55.00
2019-02-15T02:58:00.018Z,54.40
2019-02-15T02:59:00.010Z,56.50
2019-02-15T02:59:59.990Z,51.20
2019-02-15T03:00:59.993Z,54.10
2019-02-15T03:01:59.971Z,52.80
2019-02-15T03:02:59.967Z,54.20
2019-02-15T03:03:59.948Z,53.10
2019-02-15T03:04:59.966Z,53.80
2019-02-15T03:05:59.928Z,49.70
2019-02-15T03:06:59.964Z,53.20
2019-02-15T03:07:59.926Z,52.50
2019-02-15T03:08:59.894Z,54.60
2019-02-15T03:09:59.906Z,51.60
2019-02-15T03:10:59.892Z,54.10
2019-02-15T03:11:59.867Z,54.90
2019-02-15T03:12:59.867Z,51.60
2019-02-15T03:14:10.760Z,52.00
2019-02-15T03:15:00.844Z,61.80
2019-02-15T03:15:59.825Z,54.90
2019-02-15T03:16:59.818Z,58.30
2019-02-15T03:17:59.815Z,53.90
2019-02-15T03:18:59.847Z,53.50
2019-02-15T03:19:59.786Z,48.70
2019-02-15T03:20:59.776Z,51.30
2019-02-15T03:21:59.760Z,58.30
2019-02-15T03:22:59.760Z,55.10
2019-02-15T03:23:59.747Z,48.60
2019-02-15T03:24:59.794Z,51.50
2019-02-15T03:25:59.720Z,55.30
2019-02-15T03:26:59.720Z,52.50
2019-02-15T03:27:59.727Z,50.50
2019-02-15T03:28:59.686Z,46.70
2019-02-15T03:29:59.672Z,45.90
2019-02-15T03:30:59.674Z,51.20
2019-02-15T03:31:59.660Z,50.50
2019-02-15T03:32:59.653Z,51.30
2019-02-15T03:33:59.633Z,49.50
2019-02-15T03:34:59.620Z,47.30
2019-02-15T03:35:59.616Z,50.50
2019-02-15T03:36:59.597Z,49.80
2019-02-15T03:37:59.587Z,49.30
2019-02-15T03:38:59.576Z,48.50
2019-02-15T03:39:59.567Z,48.90
2019-02-15T03:40:59.592Z,50.70
2019-02-15T03:41:59.547Z,50.50
2019-02-15T03:42:59.533Z,50.00
2019-02-15T03:43:59.542Z,44.20
2019-02-15T03:44:59.510Z,50.50
2019-02-15T03:45:59.504Z,51.70
2019-02-15T03:46:59.494Z,56.10
2019-02-15T03:47:59.483Z,51.10
2019-02-15T03:48:59.482Z,50.10
2019-02-15T03:49:59.456Z,49.70
2019-02-15T03:50:59.450Z,52.30
2019-02-15T03:51:59.443Z,50.60
2019-02-15T03:52:59.436Z,53.40
2019-02-15T03:53:59.420Z,51.40
2019-02-15T03:54:59.407Z,50.10
2019-02-15T03:55:59.430Z,52.10
2019-02-15T03:56:59.381Z,56.20
2019-02-15T03:57:59.372Z,47.20
2019-02-15T03:58:59.367Z,54.30
2019-02-15T03:59:59.352Z,50.60
2019-02-15T04:00:59.343Z,55.60
2019-02-15T04:01:59.333Z,50.90
2019-02-15T04:02:59.378Z,51.50
2019-02-15T04:03:59.311Z,52.90
2019-02-15T04:04:59.300Z,51.50
2019-02-15T04:05:59.285Z,50.20
2019-02-15T04:06:59.293Z,48.30
2019-02-15T04:07:59.278Z,54.80
2019-02-15T04:08:59.258Z,50.30
2019-02-15T04:09:59.255Z,50.70
2019-02-15T04:10:59.239Z,48.90
2019-02-15T04:11:59.226Z,53.10
2019-02-15T04:12:59.217Z,51.90
2019-02-15T04:13:59.257Z,50.80
2019-02-15T04:14:59.198Z,44.20
2019-02-15T04:15:59.213Z,52.60
2019-02-15T04:16:59.171Z,50.70
2019-02-15T04:17:59.160Z,51.00
2019-02-15T04:18:59.156Z,44.50
2019-02-15T04:19:59.152Z,45.50
2019-02-15T04:20:59.136Z,46.40
2019-02-15T04:21:59.124Z,50.00
2019-02-15T04:22:59.114Z,41.90
2019-02-15T04:23:59.097Z,43.90
2019-02-15T04:24:59.114Z,43.90
2019-02-15T04:25:59.084Z,47.60
2019-02-15T04:26:59.063Z,45.20
2019-02-15T04:27:59.053Z,46.70
2019-02-15T04:28:59.055Z,44.50
2019-02-15T04:29:59.045Z,45.30
2019-02-15T04:30:59.027Z,45.30
2019-02-15T04:31:59.014Z,45.60
2019-02-15T04:32:59.001Z,45.50
2019-02-15T04:33:58.987Z,45.40
2019-02-15T04:34:58.991Z,47.10
2019-02-15T04:35:58.969Z,44.20
2019-02-15T04:36:58.960Z,44.20
2019-02-15T04:37:59.003Z,50.40
2019-02-15T04:38:58.948Z,45.30
2019-02-15T04:39:58.935Z,51.60
2019-02-15T04:40:58.919Z,42.50
2019-02-15T04:41:58.909Z,49.00
2019-02-15T04:42:58.893Z,44.60
2019-02-15T04:43:58.891Z,43.10
2019-02-15T04:44:58.884Z,48.70
2019-02-15T04:45:58.868Z,50.20
2019-02-15T04:46:58.852Z,45.00
2019-02-15T04:47:58.840Z,45.60
2019-02-15T04:48:58.830Z,47.30
2019-02-15T04:49:58.831Z,44.80
2019-02-15T04:50:58.809Z,47.40
2019-02-15T04:51:58.799Z,49.50
2019-02-15T04:52:58.808Z,46.80
2019-02-15T04:53:58.779Z,46.50
2019-02-15T04:54:58.786Z,43.80
2019-02-15T04:55:58.778Z,46.70
2019-02-15T04:56:58.750Z,49.00
2019-02-15T04:57:58.739Z,49.10
2019-02-15T04:58:58.737Z,49.60
2019-02-15T04:59:58.752Z,48.00
2019-02-15T05:00:58.749Z,49.80
2019-02-15T05:01:58.736Z,44.40
2019-02-15T05:02:58.702Z,50.50
2019-02-15T05:03:58.706Z,45.10
2019-02-15T05:04:58.694Z,49.30
2019-02-15T05:05:58.662Z,48.10
2019-02-15T05:06:58.694Z,49.70
2019-02-15T05:07:58.700Z,48.10
2019-02-15T05:08:58.692Z,47.80
2019-02-15T05:09:58.676Z,48.80
2019-02-15T05:10:58.619Z,50.20
2019-02-15T05:11:58.639Z,50.50
2019-02-15T05:12:58.602Z,47.80
2019-02-15T05:13:58.640Z,47.80
2019-02-15T05:14:58.581Z,45.80
2019-02-15T05:15:58.557Z,47.60
2019-02-15T05:16:58.618Z,46.10
2019-02-15T05:17:58.575Z,52.80
2019-02-15T05:18:58.525Z,45.00
2019-02-15T05:19:58.702Z,47.60
2019-02-15T05:20:58.494Z,44.60
2019-02-15T05:21:58.489Z,48.20
2019-02-15T05:22:58.517Z,42.10
2019-02-15T05:23:58.459Z,47.80
2019-02-15T05:24:58.474Z,44.30
2019-02-15T05:25:58.521Z,47.70
2019-02-15T05:26:58.539Z,43.20
2019-02-15T05:27:58.425Z,44.10
2019-02-15T05:28:58.421Z,45.60
2019-02-15T05:29:58.456Z,42.60
2019-02-15T05:30:58.408Z,42.90
2019-02-15T05:31:58.383Z,45.90
2019-02-15T05:32:58.373Z,48.80
2019-02-15T05:33:58.373Z,45.20
2019-02-15T05:34:58.379Z,44.00
2019-02-15T05:35:58.337Z,47.20
2019-02-15T05:36:58.335Z,47.40
2019-02-15T05:37:58.354Z,50.80
2019-02-15T05:38:58.301Z,46.30
2019-02-15T05:39:58.312Z,44.70
2019-02-15T05:40:58.297Z,44.80
2019-02-15T05:41:58.275Z,43.60
2019-02-15T05:42:58.280Z,43.40
2019-02-15T05:43:58.301Z,43.70
2019-02-15T05:45:03.909Z,47.90
2019-02-15T05:45:59.250Z,44.80
2019-02-15T05:46:58.226Z,45.10
2019-02-15T05:47:58.211Z,43.50
2019-02-15T05:48:58.191Z,44.90
2019-02-15T05:49:58.216Z,46.30
2019-02-15T05:50:58.184Z,47.00
2019-02-15T05:51:58.199Z,42.70
2019-02-15T05:52:58.165Z,44.50
2019-02-15T05:53:58.147Z,45.70
2019-02-15T05:54:58.161Z,46.00
2019-02-15T05:55:58.126Z,44.20
2019-02-15T05:56:58.114Z,45.20
2019-02-15T05:57:58.106Z,46.20
2019-02-15T05:58:58.098Z,48.10
2019-02-15T05:59:58.123Z,46.10
2019-02-15T06:00:58.102Z,51.80
2019-02-15T06:01:58.090Z,42.00
2019-02-15T06:02:58.057Z,45.50
2019-02-15T06:03:58.038Z,45.60
2019-02-15T06:04:58.066Z,51.10
2019-02-15T06:05:58.027Z,48.30
2019-02-15T06:06:58.086Z,47.50
2019-02-15T06:07:58.004Z,46.60
2019-02-15T06:08:58.053Z,48.40
2019-02-15T06:09:58.066Z,52.20
2019-02-15T06:11:06.489Z,51.10
2019-02-15T06:11:58.953Z,49.60
2019-02-15T06:12:57.946Z,52.50
2019-02-15T06:13:57.944Z,50.00
2019-02-15T06:14:57.927Z,48.20
2019-02-15T06:15:57.908Z,48.30
2019-02-15T06:16:57.923Z,52.10
2019-02-15T06:17:57.896Z,50.00
2019-02-15T06:18:57.876Z,49.40
2019-02-15T06:19:57.876Z,51.40
2019-02-15T06:20:57.907Z,55.30
2019-02-15T06:21:57.843Z,50.00
2019-02-15T06:22:57.833Z,51.00
2019-02-15T06:23:57.847Z,47.50
2019-02-15T06:24:57.818Z,44.90
2019-02-15T06:25:57.814Z,48.30
2019-02-15T06:26:57.796Z,48.10
2019-02-15T06:27:57.778Z,49.10
2019-02-15T06:28:57.792Z,48.60
2019-02-15T06:29:57.943Z,50.30
2019-02-15T06:30:57.825Z,53.90
2019-02-15T06:31:57.743Z,53.30
2019-02-15T06:32:57.728Z,51.50
2019-02-15T06:33:57.721Z,52.20
2019-02-15T06:34:57.712Z,47.60
2019-02-15T06:35:57.715Z,50.40
2019-02-15T06:36:57.739Z,50.60
2019-02-15T06:37:57.673Z,57.00
2019-02-15T06:38:57.667Z,47.60
2019-02-15T06:39:57.656Z,50.70
2019-02-15T06:40:57.683Z,47.10
2019-02-15T06:41:57.650Z,51.50
2019-02-15T06:42:57.623Z,48.50
2019-02-15T06:43:57.613Z,53.30
2019-02-15T06:44:57.597Z,49.30
2019-02-15T06:45:57.612Z,51.60
2019-02-15T06:46:57.577Z,50.10
2019-02-15T06:47:57.573Z,51.10
2019-02-15T06:48:57.557Z,45.30
2019-02-15T06:49:57.548Z,46.90
2019-02-15T06:50:57.546Z,49.30
2019-02-15T06:51:57.534Z,52.10
2019-02-15T06:52:57.540Z,47.80
2019-02-15T06:53:57.519Z,52.40
2019-02-15T06:54:57.514Z,46.00
2019-02-15T06:55:57.492Z,42.80
2019-02-15T06:56:57.474Z,46.50
2019-02-15T06:57:57.459Z,47.50
2019-02-15T06:58:57.454Z,50.00
2019-02-15T06:59:57.491Z,48.70
2019-02-15T07:00:57.442Z,46.50
2019-02-15T07:01:57.426Z,49.00
2019-02-15T07:02:57.418Z,46.00
2019-02-15T07:03:57.396Z,52.40
2019-02-15T07:04:57.387Z,47.90
2019-02-15T07:05:57.391Z,46.60
2019-02-15T07:06:57.473Z,46.20
2019-02-15T07:07:57.357Z,48.50
2019-02-15T07:08:57.377Z,48.60
2019-02-15T07:09:57.336Z,50.70
2019-02-15T07:10:57.351Z,45.10
2019-02-15T07:11:57.318Z,47.40
2019-02-15T07:12:57.312Z,43.50
2019-02-15T07:13:57.343Z,45.60
2019-02-15T07:14:57.289Z,47.90
2019-02-15T07:15:57.285Z,40.10
2019-02-15T07:16:57.260Z,55.10
2019-02-15T07:17:57.254Z,52.00
2019-02-15T07:18:57.238Z,46.30
2019-02-15T07:19:57.226Z,47.30
2019-02-15T07:20:57.278Z,46.60
2019-02-15T07:21:57.215Z,46.50
2019-02-15T07:22:57.197Z,43.60
2019-02-15T07:23:57.183Z,49.60
2019-02-15T07:24:57.178Z,46.50
2019-02-15T07:25:57.166Z,46.80
2019-02-15T07:26:57.163Z,48.50
2019-02-15T07:27:57.143Z,44.80
2019-02-15T07:28:57.138Z,49.20
2019-02-15T07:29:57.145Z,47.10
2019-02-15T07:30:57.112Z,41.20
2019-02-15T07:31:57.100Z,41.20
2019-02-15T07:32:57.089Z,42.90
2019-02-15T07:33:57.086Z,42.30
2019-02-15T07:34:57.073Z,47.20
2019-02-15T07:35:57.073Z,44.70
2019-02-15T07:36:57.064Z,44.20
2019-02-15T07:37:57.052Z,41.90
2019-02-15T07:38:57.025Z,48.70
2019-02-15T07:39:57.018Z,43.70
2019-02-15T07:40:57.002Z,42.10
2019-02-15T07:41:57.014Z,40.40
2019-02-15T07:42:56.989Z,41.90
2019-02-15T07:43:56.978Z,43.80
2019-02-15T07:44:56.966Z,41.10
2019-02-15T07:45:56.958Z,41.70
2019-02-15T07:46:56.958Z,43.20
2019-02-15T07:47:58.544Z,40.30
2019-02-15T07:48:56.920Z,41.80
2019-02-15T07:49:56.907Z,36.40
2019-02-15T07:50:56.904Z,39.00
2019-02-15T07:51:56.894Z,38.80
2019-02-15T07:52:56.875Z,39.40
2019-02-15T07:53:56.862Z,39.80
2019-02-15T07:54:56.854Z,38.80
2019-02-15T07:55:56.862Z,36.90
2019-02-15T07:56:56.948Z,40.90
2019-02-15T07:57:56.824Z,37.20
2019-02-15T07:58:56.813Z,43.30
2019-02-15T07:59:56.800Z,46.50
2019-02-15T08:00:56.795Z,47.20
2019-02-15T08:02:01.876Z,42.00
2019-02-15T08:02:57.775Z,42.60
2019-02-15T08:03:56.778Z,41.50
2019-02-15T08:04:56.760Z,41.10
2019-02-15T08:05:56.732Z,37.40
2019-02-15T08:06:56.733Z,36.20
2019-02-15T08:07:56.723Z,40.50
2019-02-15T08:08:56.713Z,41.20
2019-02-15T08:09:56.690Z,36.30
2019-02-15T08:10:56.704Z,35.60
2019-02-15T08:11:56.680Z,42.30
2019-02-15T08:12:56.680Z,34.30
2019-02-15T08:13:56.648Z,34.60
2019-02-15T08:14:56.644Z,36.70
2019-02-15T08:15:56.627Z,34.20
2019-02-15T08:16:56.615Z,36.60
2019-02-15T08:17:57.093Z,38.80
2019-02-15T08:18:56.596Z,35.70
2019-02-15T08:19:56.586Z,36.50
2019-02-15T08:20:56.579Z,35.70
2019-02-15T08:21:56.560Z,34.90
2019-02-15T08:22:56.567Z,35.60
2019-02-15T08:23:56.543Z,37.80
2019-02-15T08:24:56.535Z,38.80
2019-02-15T08:25:56.545Z,39.00
2019-02-15T08:26:56.507Z,33.50
2019-02-15T08:27:56.507Z,35.90
2019-02-15T08:28:56.483Z,33.20
2019-02-15T08:29:56.476Z,35.40
2019-02-15T08:30:56.470Z,34.80
2019-02-15T08:31:56.448Z,33.10
2019-02-15T08:32:56.448Z,35.70
2019-02-15T08:33:56.432Z,37.50
2019-02-15T08:34:56.417Z,35.70
2019-02-15T08:35:56.426Z,28.40
2019-02-15T08:36:56.413Z,35.20
2019-02-15T08:37:56.407Z,33.90
2019-02-15T08:38:56.377Z,33.90
2019-02-15T08:39:56.361Z,32.90
2019-02-15T08:40:56.352Z,29.80
2019-02-15T08:42:01.227Z,33.10
2019-02-15T08:42:57.341Z,33.40
2019-02-15T08:43:56.318Z,33.90
2019-02-15T08:44:56.335Z,31.20
2019-02-15T08:46:01.520Z,32.30
2019-02-15T08:46:57.290Z,31.70
2019-02-15T08:47:56.286Z,32.80
2019-02-15T08:48:56.264Z,32.40
2019-02-15T08:49:56.253Z,33.40
2019-02-15T08:50:56.256Z,35.60
2019-02-15T08:51:56.233Z,36.10
2019-02-15T08:52:56.243Z,33.90
2019-02-15T08:53:56.234Z,35.00
2019-02-15T08:54:56.199Z,35.70
2019-02-15T08:55:56.192Z,34.10
2019-02-15T08:56:56.178Z,33.60
2019-02-15T08:57:56.180Z,31.70
2019-02-15T08:58:56.163Z,37.10
2019-02-15T08:59:56.145Z,31.40
2019-02-15T09:00:56.134Z,36.10
2019-02-15T09:01:56.125Z,37.70
2019-02-15T09:02:56.124Z,34.30
2019-02-15T09:03:56.110Z,33.60
2019-02-15T09:04:56.093Z,33.40
2019-02-15T09:05:56.082Z,31.20
2019-02-15T09:06:56.074Z,33.50
2019-02-15T09:07:56.110Z,35.50
2019-02-15T09:08:56.051Z,34.70
2019-02-15T09:09:56.039Z,35.40
2019-02-15T09:10:56.068Z,34.90
2019-02-15T09:11:56.017Z,34.10
2019-02-15T09:12:56.021Z,34.10
2019-02-15T09:13:55.992Z,34.20
2019-02-15T09:14:56.425Z,28.90
2019-02-15T09:15:55.977Z,30.50
2019-02-15T09:16:55.965Z,35.90
2019-02-15T09:17:55.964Z,32.00
2019-02-15T09:18:55.944Z,30.30
2019-02-15T09:19:55.932Z,29.70
2019-02-15T09:20:55.934Z,30.30
2019-02-15T09:21:55.908Z,32.90
2019-02-15T09:22:55.905Z,28.30
2019-02-15T09:23:55.883Z,28.80
2019-02-15T09:24:55.879Z,26.10
2019-02-15T09:25:55.886Z,30.30
2019-02-15T09:26:55.867Z,30.50
2019-02-15T09:27:55.882Z,29.10
2019-02-15T09:28:55.830Z,28.60
2019-02-15T09:29:55.820Z,28.50
2019-02-15T09:30:55.809Z,26.30
2019-02-15T09:31:55.801Z,32.20
2019-02-15T09:32:55.793Z,32.60
2019-02-15T09:33:55.783Z,28.80
2019-02-15T09:34:55.765Z,32.40
2019-02-15T09:35:55.756Z,31.50
2019-02-15T09:36:55.742Z,30.10
2019-02-15T09:37:55.733Z,29.10
2019-02-15T09:38:55.738Z,30.80
2019-02-15T09:39:55.711Z,30.60
2019-02-15T09:40:55.702Z,28.60
2019-02-15T09:41:55.707Z,31.30
2019-02-15T09:42:55.676Z,32.40
2019-02-15T09:43:55.672Z,37.50
2019-02-15T09:44:55.653Z,35.30
2019-02-15T09:45:55.646Z,30.70
2019-02-15T09:46:55.636Z,30.50
2019-02-15T09:47:55.626Z,30.20
2019-02-15T09:48:55.670Z,29.20
2019-02-15T09:49:55.607Z,31.70
2019-02-15T09:50:55.592Z,34.90
2019-02-15T09:51:55.678Z,26.50
2019-02-15T09:52:55.566Z,33.50
2019-02-15T09:53:55.557Z,29.30
2019-02-15T09:54:55.577Z,33.30
2019-02-15T09:55:55.553Z,28.10
2019-02-15T09:56:55.598Z,38.30
2019-02-15T09:57:55.526Z,28.70
2019-02-15T09:58:55.515Z,29.60
2019-02-15T09:59:55.501Z,32.70
2019-02-15T10:00:55.485Z,31.30
2019-02-15T10:01:55.470Z,28.40
2019-02-15T10:02:55.461Z,28.90
2019-02-15T10:03:55.462Z,32.60
2019-02-15T10:04:55.438Z,27.00
2019-02-15T10:05:55.429Z,29.40
2019-02-15T10:06:55.439Z,25.50
2019-02-15T10:07:55.409Z,27.90
2019-02-15T10:08:55.441Z,28.20
2019-02-15T10:09:55.391Z,27.60
2019-02-15T10:10:55.378Z,30.90
2019-02-15T10:11:55.363Z,30.20
2019-02-15T10:12:55.358Z,28.10
2019-02-15T10:13:55.342Z,27.90
2019-02-15T10:14:55.506Z,26.80
2019-02-15T10:15:55.333Z,32.90
2019-02-15T10:16:55.315Z,29.30
2019-02-15T10:17:55.311Z,26.10
2019-02-15T10:18:55.289Z,28.10
2019-02-15T10:19:55.286Z,32.30
2019-02-15T10:20:55.264Z,28.20
2019-02-15T10:21:55.256Z,32.10
2019-02-15T10:22:55.250Z,34.20
2019-02-15T10:23:55.241Z,27.50
2019-02-15T10:24:55.254Z,27.20
2019-02-15T10:25:55.224Z,28.40
2019-02-15T10:26:55.201Z,27.10
2019-02-15T10:27:55.211Z,24.60
2019-02-15T10:28:55.190Z,24.10
2019-02-15T10:29:55.177Z,29.40
2019-02-15T10:30:55.163Z,27.20
2019-02-15T10:31:55.200Z,30.60
2019-02-15T10:32:55.137Z,28.20
2019-02-15T10:33:55.128Z,24.70
2019-02-15T10:34:55.149Z,26.00
2019-02-15T10:35:55.104Z,29.50
2019-02-15T10:36:55.094Z,29.60
2019-02-15T10:37:55.083Z,32.40
2019-02-15T10:38:55.107Z,25.40
2019-02-15T10:39:55.064Z,25.70
2019-02-15T10:40:55.071Z,27.40
2019-02-15T10:41:55.047Z,28.40
2019-02-15T10:42:55.033Z,30.50
2019-02-15T10:43:55.024Z,25.60
2019-02-15T10:44:55.014Z,38.80
2019-02-15T10:45:55.007Z,28.40
2019-02-15T10:46:54.991Z,26.10
2019-02-15T10:47:54.980Z,30.80
2019-02-15T10:48:54.970Z,34.00
2019-02-15T10:49:54.960Z,25.50
2019-02-15T10:50:54.951Z,28.50
2019-02-15T10:51:54.937Z,27.70
2019-02-15T10:52:54.936Z,27.40
2019-02-15T10:53:54.918Z,25.90
2019-02-15T10:54:54.909Z,23.70
2019-02-15T10:55:54.967Z,29.50
2019-02-15T10:56:54.900Z,27.00
2019-02-15T10:57:54.884Z,30.50
2019-02-15T10:58:54.875Z,24.80
2019-02-15T10:59:54.858Z,27.10
2019-02-15T11:00:54.852Z,25.40
2019-02-15T11:01:54.836Z,31.70
2019-02-15T11:02:54.827Z,27.80
2019-02-15T11:03:54.817Z,36.20
2019-02-15T11:04:54.846Z,29.70
2019-02-15T11:05:54.801Z,27.50
2019-02-15T11:06:54.786Z,32.60
2019-02-15T11:07:54.774Z,27.60
2019-02-15T11:08:54.774Z,25.50
2019-02-15T11:09:54.752Z,25.70
2019-02-15T11:10:54.769Z,28.60
2019-02-15T11:11:54.737Z,27.00
2019-02-15T11:12:54.719Z,31.90
2019-02-15T11:13:54.738Z,27.00
2019-02-15T11:14:54.893Z,32.10
2019-02-15T11:15:54.713Z,29.30
2019-02-15T11:16:54.676Z,25.20
2019-02-15T11:17:54.668Z,26.70
2019-02-15T11:18:54.693Z,24.70
2019-02-15T11:19:54.647Z,25.50
2019-02-15T11:20:54.639Z,22.20
2019-02-15T11:21:54.786Z,24.80
2019-02-15T11:22:54.654Z,26.30
2019-02-15T11:23:54.608Z,29.30
2019-02-15T11:24:54.599Z,26.50
2019-02-15T11:25:54.591Z,27.40
2019-02-15T11:26:54.593Z,23.30
2019-02-15T11:27:54.565Z,22.20
2019-02-15T11:28:54.578Z,24.00
2019-02-15T11:29:54.542Z,24.20
2019-02-15T11:30:54.542Z,23.40
2019-02-15T11:31:54.536Z,26.40
2019-02-15T11:32:54.513Z,24.20
2019-02-15T11:33:54.505Z,20.20
2019-02-15T11:34:54.495Z,26.50
2019-02-15T11:35:54.602Z,24.30
2019-02-15T11:36:54.484Z,23.70
2019-02-15T11:37:54.466Z,23.70
2019-02-15T11:38:54.481Z,21.70
2019-02-15T11:39:54.504Z,27.40
2019-02-15T11:40:54.733Z,30.40
2019-02-15T11:41:54.567Z,24.60
2019-02-15T11:42:54.522Z,26.30
2019-02-15T11:43:54.449Z,24.40
2019-02-15T11:44:54.446Z,27.90
2019-02-15T11:45:54.410Z,26.60
2019-02-15T11:46:56.667Z,28.80
2019-02-15T11:47:54.425Z,26.80
2019-02-15T11:48:54.377Z,25.50
2019-02-15T11:49:54.489Z,23.40
2019-02-15T11:50:54.337Z,25.90
2019-02-15T11:51:54.389Z,22.40
2019-02-15T11:52:54.330Z,29.70
2019-02-15T11:53:54.344Z,24.10
2019-02-15T11:54:54.320Z,27.10
2019-02-15T11:55:54.298Z,25.50
2019-02-15T11:56:54.551Z,24.50
2019-02-15T11:57:54.330Z,23.70
2019-02-15T11:58:54.336Z,25.60
2019-02-15T11:59:54.279Z,23.40
2019-02-15T12:00:54.274Z,26.90
2019-02-15T12:01:54.250Z,26.00
2019-02-15T12:02:54.285Z,29.70
2019-02-15T12:03:54.420Z,23.70
2019-02-15T12:04:54.216Z,24.90
2019-02-15T12:05:54.188Z,22.20
2019-02-15T12:06:54.177Z,27.00
2019-02-15T12:07:54.239Z,23.50
2019-02-15T12:08:54.219Z,21.90
2019-02-15T12:09:54.162Z,24.00
2019-02-15T12:10:54.178Z,24.80
2019-02-15T12:11:54.285Z,23.70
2019-02-15T12:12:54.141Z,24.90
2019-02-15T12:13:54.180Z,22.10
2019-02-15T12:14:54.124Z,25.40
2019-02-15T12:15:54.083Z,25.90
2019-02-15T12:16:54.130Z,22.10
2019-02-15T12:17:54.259Z,26.00
2019-02-15T12:18:54.388Z,24.50
2019-02-15T12:19:54.125Z,26.60
2019-02-15T12:20:54.096Z,30.80
2019-02-15T12:21:54.054Z,24.90
2019-02-15T12:22:54.046Z,24.70
2019-02-15T12:23:54.107Z,30.20
2019-02-15T12:24:54.059Z,35.50
2019-02-15T12:25:53.979Z,31.60
2019-02-15T12:26:54.430Z,28.60
2019-02-15T12:27:54.112Z,26.60
2019-02-15T12:28:54.055Z,29.00
2019-02-15T12:29:53.951Z,30.30
2019-02-15T12:30:53.945Z,33.80
2019-02-15T12:31:54.160Z,26.70
2019-02-15T12:32:54.017Z,27.60
2019-02-15T12:33:53.900Z,31.00
2019-02-15T12:34:53.949Z,32.80
2019-02-15T12:35:53.925Z,51.30
2019-02-15T12:36:53.864Z,31.60
2019-02-15T12:37:53.885Z,31.70
2019-02-15T12:38:53.890Z,29.90
2019-02-15T12:39:53.851Z,30.60
2019-02-15T12:40:53.869Z,28.70
2019-02-15T12:41:53.815Z,27.80
2019-02-15T12:42:53.872Z,36.10
2019-02-15T12:43:53.812Z,30.30
2019-02-15T12:44:53.789Z,32.70
2019-02-15T12:45:53.799Z,31.70
2019-02-15T12:46:53.780Z,30.60
2019-02-15T12:47:53.955Z,27.20
2019-02-15T12:48:53.757Z,29.90
2019-02-15T12:49:55.717Z,33.90
2019-02-15T12:50:54.075Z,29.40
2019-02-15T12:51:53.713Z,27.10